Time;durP1;ratioP1;P1;durP2;ratioP2;P2;SDS_P1;SDS_P2;PMS_P1;PMS_P2;Temp;Humidity;BMP_temperature;BMP_pressure;BME280_temperature;BME280_humidity;BME280_pressure;Samples;Min_cycle;Max_cycle;Signal;HPM_P1;HPM_P2
2022/01/16 00:07:43;;;;;;;6.10;3.63;;;-2.70;99.90;;;;;;8487795;27;20186;-66
2022/01/16 00:11:44;;;;;;;11.90;4.37;;;-2.70;99.90;;;;;;8483526;28;20187;-66
2022/01/16 00:15:45;;;;;;;7.23;3.73;;;-2.80;99.90;;;;;;8479859;28;20204;-65
2022/01/16 00:19:46;;;;;;;9.40;3.53;;;-2.80;99.90;;;;;;8471447;27;20644;-65
2022/01/16 00:23:47;;;;;;;9.70;4.30;;;-2.90;99.90;;;;;;8453302;28;20304;-65
2022/01/16 00:27:48;;;;;;;7.60;4.50;;;-2.90;99.90;;;;;;8475031;28;20210;-66
2022/01/16 00:31:49;;;;;;;8.53;4.20;;;-3.00;99.90;;;;;;8477519;28;20195;-66
2022/01/16 00:35:50;;;;;;;8.60;3.97;;;-3.00;99.90;;;;;;8453004;28;20486;-65
2022/01/16 00:39:51;;;;;;;7.60;4.00;;;-3.10;99.90;;;;;;8472887;27;20190;-67
2022/01/16 00:43:53;;;;;;;12.93;4.37;;;-3.10;99.90;;;;;;8482505;27;20203;-64
2022/01/16 00:47:54;;;;;;;9.13;4.23;;;-3.20;99.90;;;;;;8479223;27;20191;-64
2022/01/16 00:51:55;;;;;;;10.53;4.63;;;-3.20;99.90;;;;;;8468411;27;20276;-66
2022/01/16 00:55:56;;;;;;;11.90;4.93;;;-3.20;99.90;;;;;;8477517;27;20291;-66
2022/01/16 00:59:57;;;;;;;12.03;5.83;;;-3.30;99.90;;;;;;8468473;27;20186;-65
2022/01/16 01:03:58;;;;;;;13.13;5.57;;;-3.30;99.90;;;;;;8479676;27;20193;-65
2022/01/16 01:07:59;;;;;;;10.70;4.53;;;-3.40;99.90;;;;;;8490674;27;20183;-66
2022/01/16 01:12:02;;;;;;;9.47;4.60;;;-3.40;99.90;;;;;;8490555;27;20181;-65
2022/01/16 01:16:04;;;;;;;6.33;4.37;;;-3.50;99.90;;;;;;8491901;27;20225;-65
2022/01/16 01:20:06;;;;;;;10.37;4.73;;;-3.60;99.90;;;;;;8491224;27;20604;-65
2022/01/16 01:24:07;;;;;;;13.83;5.63;;;-3.60;99.90;;;;;;8460931;27;20175;-65
2022/01/16 01:28:08;;;;;;;10.90;5.60;;;-3.70;99.90;;;;;;8488594;27;20190;-64
2022/01/16 01:32:09;;;;;;;11.27;5.33;;;-3.70;99.90;;;;;;8465807;27;20183;-64
2022/01/16 01:36:10;;;;;;;9.33;5.57;;;-3.60;99.90;;;;;;8490409;27;20638;-65
2022/01/16 01:40:14;;;;;;;13.20;5.00;;;-3.70;99.90;;;;;;8478430;27;20201;-67
2022/01/16 01:52:57;;;;;;;7.93;4.17;;;-3.90;99.90;;;;;;8485434;27;20270;-64
2022/01/16 01:56:58;;;;;;;13.93;6.23;;;-4.00;99.90;;;;;;8489108;27;20199;-65
2022/01/16 02:00:59;;;;;;;9.67;4.60;;;-4.00;99.90;;;;;;8479007;27;20206;-65
2022/01/16 02:05:00;;;;;;;12.13;4.97;;;-4.00;99.90;;;;;;8489322;27;20190;-64
2022/01/16 02:09:06;;;;;;;15.60;5.57;;;-4.00;99.90;;;;;;8489639;27;20228;-66
2022/01/16 02:13:10;;;;;;;9.97;5.67;;;-3.90;99.90;;;;;;8474338;27;20183;-65
2022/01/16 02:30:50;;;;;;;18.87;8.97;;;-4.00;99.90;;;;;;8467034;27;20204;-63
2022/01/16 02:34:42;;;;;;;12.27;6.03;;;-4.00;99.90;;;;;;8487996;27;20240;-65
2022/01/16 02:38:45;;;;;;;13.43;6.57;;;-4.10;99.90;;;;;;8484761;27;20186;-65
2022/01/16 02:42:49;;;;;;;14.97;5.93;;;-4.10;99.90;;;;;;8455270;27;20234;-64
2022/01/16 02:46:50;;;;;;;12.67;6.10;;;-4.10;99.90;;;;;;8481303;27;20176;-64
2022/01/16 02:50:51;;;;;;;9.70;5.13;;;-4.20;99.90;;;;;;8484794;27;20179;-65
2022/01/16 02:54:54;;;;;;;12.07;5.30;;;-4.20;99.90;;;;;;8487299;27;20501;-65
2022/01/16 02:58:55;;;;;;;16.93;6.53;;;-4.20;99.90;;;;;;8483767;27;20285;-64
2022/01/16 03:02:56;;;;;;;16.73;7.10;;;-4.20;99.90;;;;;;8472515;27;20198;-66
2022/01/16 03:07:02;;;;;;;17.67;7.30;;;-4.20;99.90;;;;;;8483930;27;20178;-65
2022/01/16 03:11:16;;;;;;;15.57;7.47;;;-4.20;99.90;;;;;;8476930;27;20239;-65
2022/01/16 03:15:17;;;;;;;18.67;9.20;;;-4.20;99.90;;;;;;8474938;27;20199;-65
2022/01/16 03:23:39;;;;;;;16.67;9.23;;;-4.20;99.90;;;;;;8458255;27;20228;-65
2022/01/16 03:27:40;;;;;;;16.63;8.43;;;-4.20;99.90;;;;;;8454308;27;20266;-65
2022/01/16 03:31:40;;;;;;;24.03;9.80;;;-4.20;99.90;;;;;;8469921;27;20205;-65
2022/01/16 03:35:42;;;;;;;20.90;8.80;;;-4.30;99.90;;;;;;8461168;27;20183;-65
2022/01/16 03:39:43;;;;;;;16.30;8.00;;;-4.30;99.90;;;;;;8469863;27;20183;-71
2022/01/16 03:43:44;;;;;;;18.67;8.43;;;-4.40;99.90;;;;;;8482763;27;20198;-65
2022/01/16 03:47:45;;;;;;;16.07;7.73;;;-4.50;99.90;;;;;;8470315;27;20184;-66
2022/01/16 03:51:48;;;;;;;17.37;8.57;;;-4.50;99.90;;;;;;8473686;27;20179;-66
2022/01/16 03:55:48;;;;;;;14.03;7.57;;;-4.50;99.90;;;;;;8453271;28;20290;-65
2022/01/16 03:59:49;;;;;;;20.87;8.90;;;-4.60;99.90;;;;;;8480778;27;20179;-65
2022/01/16 04:03:52;;;;;;;20.03;8.57;;;-4.60;99.90;;;;;;8484939;27;20203;-66
2022/01/16 04:07:53;;;;;;;13.13;8.03;;;-4.70;99.90;;;;;;8487045;28;20213;-65
2022/01/16 04:11:56;;;;;;;15.70;8.23;;;-4.70;99.90;;;;;;8477974;27;20207;-66
2022/01/16 04:15:58;;;;;;;20.80;7.37;;;-4.80;99.90;;;;;;8484374;27;20194;-65
2022/01/16 04:19:58;;;;;;;21.43;9.13;;;-4.80;99.90;;;;;;8477399;27;20179;-65
2022/01/16 04:23:59;;;;;;;17.93;8.10;;;-4.80;99.90;;;;;;8477539;27;20202;-66
2022/01/16 04:28:00;;;;;;;18.93;8.37;;;-4.70;99.90;;;;;;8485120;27;20192;-65
2022/01/16 04:32:01;;;;;;;20.17;9.17;;;-4.70;99.90;;;;;;8480548;27;20179;-65
2022/01/16 04:36:02;;;;;;;19.00;8.43;;;-4.70;99.90;;;;;;8491899;27;20179;-66
2022/01/16 04:40:04;;;;;;;20.93;9.50;;;-4.80;99.90;;;;;;8484367;27;20176;-65
2022/01/16 04:44:05;;;;;;;20.07;8.77;;;-4.80;99.90;;;;;;8479046;27;20167;-67
2022/01/16 04:48:06;;;;;;;28.10;9.73;;;-4.70;99.90;;;;;;8482408;27;20508;-66
2022/01/16 04:52:07;;;;;;;15.33;7.40;;;-4.80;99.90;;;;;;8487285;27;20190;-71
2022/01/16 04:56:09;;;;;;;22.70;9.00;;;-4.80;99.90;;;;;;8490607;27;20201;-66
2022/01/16 05:00:15;;;;;;;24.03;8.90;;;-4.80;99.90;;;;;;8481204;27;20646;-65
2022/01/16 05:04:16;;;;;;;28.07;13.43;;;-4.80;99.90;;;;;;8491123;27;20179;-65
2022/01/16 05:08:17;;;;;;;26.63;13.23;;;-4.80;99.90;;;;;;8491300;27;20206;-65
2022/01/16 05:12:26;;;;;;;22.67;10.33;;;-4.80;99.90;;;;;;8492914;27;20297;-66
2022/01/16 05:16:37;;;;;;;23.03;10.63;;;-4.90;99.90;;;;;;8486925;27;20209;-66
2022/01/16 05:20:38;;;;;;;15.30;8.17;;;-4.90;99.90;;;;;;8474068;27;20204;-66
2022/01/16 05:24:39;;;;;;;16.23;7.97;;;-4.90;99.90;;;;;;8470869;27;20175;-66
2022/01/16 05:28:39;;;;;;;22.87;8.47;;;-5.00;99.90;;;;;;8482660;27;20186;-66
2022/01/16 05:32:40;;;;;;;13.33;7.73;;;-5.00;99.90;;;;;;8480031;27;20194;-66
2022/01/16 05:36:41;;;;;;;21.50;9.83;;;-5.00;99.90;;;;;;8491134;27;20185;-66
2022/01/16 05:40:43;;;;;;;17.20;8.97;;;-5.00;99.90;;;;;;8473845;27;20210;-66
2022/01/16 05:44:43;;;;;;;20.67;9.60;;;-5.00;99.90;;;;;;8488660;27;20175;-66
2022/01/16 05:48:44;;;;;;;17.67;9.20;;;-5.10;99.90;;;;;;8476819;27;20288;-66
2022/01/16 05:52:46;;;;;;;17.60;8.93;;;-5.10;99.90;;;;;;8474890;27;20220;-66
2022/01/16 05:56:47;;;;;;;16.23;7.57;;;-5.10;99.90;;;;;;8460433;27;20293;-65
2022/01/16 06:00:48;;;;;;;16.73;8.43;;;-5.20;99.90;;;;;;8482266;27;20210;-66
2022/01/16 06:04:49;;;;;;;18.03;7.37;;;-5.20;99.90;;;;;;8476333;27;20185;-67
2022/01/16 06:08:50;;;;;;;13.70;6.70;;;-5.20;99.90;;;;;;8482020;27;20175;-66
2022/01/16 06:12:53;;;;;;;29.17;11.00;;;-5.20;99.90;;;;;;8472867;27;20180;-66
2022/01/16 06:16:54;;;;;;;19.57;9.77;;;-5.10;99.90;;;;;;8471077;27;20199;-66
2022/01/16 06:20:55;;;;;;;25.40;10.20;;;-5.00;99.90;;;;;;8469315;27;20333;-65
2022/01/16 06:24:55;;;;;;;16.17;8.57;;;-5.00;99.90;;;;;;8477938;27;20171;-66
2022/01/16 06:28:57;;;;;;;18.30;7.67;;;-5.00;99.90;;;;;;8474515;27;20202;-64
2022/01/16 06:32:58;;;;;;;25.27;12.80;;;-5.10;99.90;;;;;;8483861;27;20183;-65
2022/01/16 06:36:59;;;;;;;24.37;11.10;;;-5.10;99.90;;;;;;8475399;27;20186;-65
2022/01/16 06:40:59;;;;;;;19.60;8.73;;;-5.20;99.90;;;;;;8475567;27;20203;-66
2022/01/16 06:45:00;;;;;;;14.23;6.60;;;-5.20;99.90;;;;;;8483559;27;20200;-66
2022/01/16 06:49:01;;;;;;;18.53;7.40;;;-5.20;99.90;;;;;;8478120;27;20202;-65
2022/01/16 06:53:02;;;;;;;15.10;7.40;;;-5.20;99.90;;;;;;8459417;27;20187;-66
2022/01/16 06:57:03;;;;;;;20.33;8.87;;;-5.20;99.90;;;;;;8472102;27;20201;-67
2022/01/16 07:01:04;;;;;;;19.50;8.37;;;-5.20;99.90;;;;;;8474876;27;20265;-66
2022/01/16 07:05:05;;;;;;;13.53;7.40;;;-5.20;99.90;;;;;;8472901;27;20193;-66
2022/01/16 07:09:06;;;;;;;16.33;7.43;;;-5.20;99.90;;;;;;8477016;27;20199;-66
2022/01/16 07:13:07;;;;;;;17.63;8.83;;;-5.20;99.90;;;;;;8483614;27;20186;-67
2022/01/16 07:17:07;;;;;;;15.87;9.17;;;-5.10;99.90;;;;;;8477652;27;20203;-67
2022/01/16 07:21:13;;;;;;;23.40;10.60;;;-5.00;99.90;;;;;;8482725;27;20202;-66
2022/01/16 07:25:14;;;;;;;30.10;12.63;;;-4.90;99.90;;;;;;8482931;27;20199;-66
2022/01/16 07:29:15;;;;;;;33.17;13.37;;;-4.80;99.90;;;;;;8473225;27;20186;-66
2022/01/16 07:33:15;;;;;;;30.87;12.87;;;-4.70;99.90;;;;;;8470108;27;20207;-66
2022/01/16 07:37:16;;;;;;;31.67;13.47;;;-4.60;99.90;;;;;;8452297;27;20255;-66
2022/01/16 07:41:17;;;;;;;91.20;27.57;;;-4.60;99.90;;;;;;8466219;27;20207;-66
2022/01/16 07:45:18;;;;;;;68.67;27.77;;;-4.50;99.90;;;;;;8464434;27;20206;-67
2022/01/16 07:49:20;;;;;;;65.20;24.53;;;-4.40;99.90;;;;;;8464026;27;20183;-66
2022/01/16 07:53:21;;;;;;;66.13;22.97;;;-4.30;99.90;;;;;;8477247;27;20179;-66
2022/01/16 07:57:25;;;;;;;55.23;21.63;;;-4.10;99.90;;;;;;8480646;27;20282;-67
2022/01/16 08:01:25;;;;;;;52.77;21.20;;;-4.00;99.90;;;;;;8484624;28;20211;-66
2022/01/16 08:05:27;;;;;;;54.90;22.73;;;-3.80;99.90;;;;;;8484368;27;20200;-66
2022/01/16 08:09:31;;;;;;;133.93;46.37;;;-3.60;99.90;;;;;;8485734;27;20199;-66
2022/01/16 08:13:32;;;;;;;125.10;45.60;;;-3.40;99.90;;;;;;8465329;27;20183;-67
2022/01/16 08:17:33;;;;;;;100.77;41.50;;;-3.20;99.90;;;;;;8477293;27;20223;-66
2022/01/16 08:21:33;;;;;;;82.93;42.27;;;-3.00;99.90;;;;;;8476671;28;20203;-67
2022/01/16 08:25:34;;;;;;;67.80;35.50;;;-2.90;99.90;;;;;;8466915;28;20209;-66
2022/01/16 08:29:35;;;;;;;57.57;29.43;;;-2.70;99.90;;;;;;8475826;28;20173;-64
2022/01/16 08:33:36;;;;;;;47.57;23.00;;;-2.50;99.90;;;;;;8464558;28;20184;-66
2022/01/16 08:37:37;;;;;;;54.47;28.03;;;-2.20;99.90;;;;;;8454420;28;20180;-67
2022/01/16 08:41:38;;;;;;;83.33;39.13;;;-2.00;99.90;;;;;;8465653;28;20290;-67
2022/01/16 08:45:41;;;;;;;90.37;43.47;;;-1.80;99.90;;;;;;8470500;28;20585;-67
2022/01/16 08:49:41;;;;;;;79.10;39.23;;;-1.80;99.90;;;;;;8466520;28;20217;-67
2022/01/16 08:53:42;;;;;;;74.43;33.40;;;-1.70;99.90;;;;;;8463234;28;20189;-67
2022/01/16 08:57:43;;;;;;;66.00;33.80;;;-1.50;99.90;;;;;;8459254;28;20226;-67
2022/01/16 09:01:44;;;;;;;57.37;30.47;;;-1.30;99.90;;;;;;8479173;27;20226;-67
2022/01/16 09:05:46;;;;;;;56.23;30.33;;;-1.20;99.90;;;;;;8470883;27;20214;-67
2022/01/16 09:09:47;;;;;;;159.23;74.40;;;-1.00;99.90;;;;;;8464090;27;20274;-67
2022/01/16 09:13:48;;;;;;;187.70;98.67;;;-0.80;99.90;;;;;;8471189;27;20191;-68
2022/01/16 09:17:48;;;;;;;241.40;125.07;;;-0.60;99.90;;;;;;8468226;27;20211;-67
2022/01/16 09:21:49;;;;;;;226.50;113.87;;;-0.30;99.90;;;;;;8471715;27;20210;-67
2022/01/16 09:25:50;;;;;;;233.07;118.30;;;-0.10;99.90;;;;;;8489802;27;20240;-67
2022/01/16 09:29:51;;;;;;;254.70;141.00;;;0.10;99.90;;;;;;8480663;27;20181;-67
2022/01/16 09:33:54;;;;;;;237.97;123.43;;;0.30;99.90;;;;;;8470600;27;20200;-67
2022/01/16 09:37:55;;;;;;;198.20;107.87;;;0.70;99.90;;;;;;8486936;27;20183;-68
2022/01/16 09:41:56;;;;;;;140.10;71.03;;;1.00;99.90;;;;;;8487773;27;20302;-67
2022/01/16 09:45:57;;;;;;;101.17;52.93;;;1.30;99.90;;;;;;8459073;27;20180;-68
2022/01/16 09:49:59;;;;;;;79.70;43.83;;;1.50;99.90;;;;;;8474353;27;20202;-68
2022/01/16 09:54:01;;;;;;;66.10;34.77;;;1.80;99.90;;;;;;8465085;27;20194;-66
2022/01/16 09:58:02;;;;;;;71.43;37.50;;;1.90;99.90;;;;;;8462566;27;20244;-67
2022/01/16 10:02:04;;;;;;;73.70;41.80;;;2.20;99.90;;;;;;8480003;27;20205;-66
2022/01/16 10:06:10;;;;;;;67.73;35.57;;;2.30;99.90;;;;;;8468630;27;20172;-67
2022/01/16 10:10:12;;;;;;;67.27;37.23;;;2.50;99.90;;;;;;8472674;27;20175;-67
2022/01/16 10:14:22;;;;;;;56.53;29.70;;;2.70;99.90;;;;;;8472477;27;20180;-66
2022/01/16 10:18:52;;;;;;;50.53;26.67;;;2.90;99.90;;;;;;8455363;27;20246;-66
2022/01/16 10:22:58;;;;;;;31.73;17.57;;;3.20;99.90;;;;;;8467755;27;20214;-67
2022/01/16 10:27:08;;;;;;;39.33;21.33;;;3.20;99.90;;;;;;8487144;27;20502;-66
2022/01/16 10:31:19;;;;;;;35.03;19.70;;;3.30;99.90;;;;;;8480129;27;20185;-66
2022/01/16 10:35:23;;;;;;;21.50;12.33;;;3.50;99.90;;;;;;8454605;28;20184;-66
2022/01/16 10:39:23;;;;;;;21.70;13.07;;;3.60;99.90;;;;;;8457065;27;20175;-65
2022/01/16 10:43:41;;;;;;;12.57;8.30;;;3.80;99.90;;;;;;8474664;27;20214;-65
2022/01/16 10:47:54;;;;;;;13.83;8.40;;;3.80;99.90;;;;;;8488413;27;20174;-65
2022/01/16 10:52:11;;;;;;;11.93;7.43;;;4.00;1.00;;;;;;8470743;27;20183;-66
2022/01/16 10:56:12;;;;;;;9.57;6.70;;;4.20;1.00;;;;;;8452771;28;20309;-68
2022/01/16 11:00:19;;;;;;;13.83;8.03;;;4.50;99.90;;;;;;8474525;27;20180;-65
2022/01/16 11:04:26;;;;;;;10.17;6.63;;;4.60;99.90;;;;;;8468787;27;20207;-65
2022/01/16 11:08:27;;;;;;;11.20;6.77;;;4.70;1.00;;;;;;8484047;27;20215;-65
2022/01/16 11:12:35;;;;;;;12.23;6.10;;;4.70;26.40;;;;;;8469467;27;20183;-65
2022/01/16 11:16:36;;;;;;;8.50;6.23;;;4.70;99.90;;;;;;8479915;27;20340;-65
2022/01/16 11:20:38;;;;;;;10.00;7.23;;;4.60;99.90;;;;;;8477235;27;20182;-66
2022/01/16 11:25:00;;;;;;;11.20;6.93;;;4.70;1.00;;;;;;8485779;27;20232;-65
2022/01/16 11:29:02;;;;;;;12.63;6.97;;;4.50;99.90;;;;;;8479707;27;20697;-66
2022/01/16 11:33:04;;;;;;;10.07;7.07;;;4.50;1.00;;;;;;8485336;27;20210;-64
2022/01/16 11:37:05;;;;;;;12.20;7.33;;;4.60;99.90;;;;;;8486859;27;20180;-65
2022/01/16 11:41:24;;;;;;;10.50;7.07;;;4.50;1.00;;;;;;8470721;27;20204;-65
2022/01/16 11:45:25;;;;;;;9.43;7.13;;;4.60;99.90;;;;;;8479972;27;20174;-64
2022/01/16 11:49:41;;;;;;;12.73;8.73;;;4.80;99.90;;;;;;8467940;27;20179;-66
2022/01/16 11:54:04;;;;;;;11.83;7.43;;;4.80;32.80;;;;;;8460718;27;20247;-64
2022/01/16 11:58:06;;;;;;;12.47;7.70;;;4.70;99.90;;;;;;8465082;28;20190;-65
2022/01/16 12:02:10;;;;;;;12.63;7.30;;;4.70;1.00;;;;;;8483761;27;20234;-64
2022/01/16 12:06:31;;;;;;;10.30;7.97;;;4.80;89.40;;;;;;8478736;27;20175;-65
2022/01/16 12:10:44;;;;;;;12.23;7.77;;;4.90;99.90;;;;;;8483884;27;20202;-67
2022/01/16 12:15:08;;;;;;;12.90;7.37;;;5.10;99.90;;;;;;8470427;28;20226;-63
2022/01/16 12:19:36;;;;;;;13.20;8.80;;;5.30;99.90;;;;;;8477936;27;20251;-63
2022/01/16 12:23:47;;;;;;;12.37;7.30;;;5.30;99.90;;;;;;8476928;27;20314;-62
2022/01/16 12:27:50;;;;;;;13.43;8.73;;;5.40;99.90;;;;;;8455873;28;20199;-62
2022/01/16 12:31:50;;;;;;;11.83;7.47;;;5.30;1.00;;;;;;8477930;28;20180;-63
2022/01/16 12:35:51;;;;;;;11.73;7.10;;;5.10;75.80;;;;;;8455997;28;20179;-64
2022/01/16 12:39:52;;;;;;;11.43;7.40;;;4.90;99.90;;;;;;8460843;27;20172;-64
2022/01/16 12:44:09;;;;;;;11.27;7.07;;;5.00;99.90;;;;;;8483551;27;20218;-65
2022/01/16 12:48:10;;;;;;;13.37;7.70;;;4.90;99.90;;;;;;8484492;27;20172;-67
2022/01/16 12:52:11;;;;;;;11.87;7.43;;;4.80;28.20;;;;;;8487903;27;20191;-65
2022/01/16 12:56:27;;;;;;;11.33;7.47;;;5.00;99.90;;;;;;8492028;27;20263;-64
2022/01/16 13:00:28;;;;;;;11.77;8.23;;;5.10;99.90;;;;;;8486256;27;20195;-64
2022/01/16 13:04:34;;;;;;;14.43;8.00;;;5.00;99.90;;;;;;8483002;27;20213;-66
2022/01/16 13:09:03;;;;;;;11.67;7.73;;;4.70;1.00;;;;;;8481875;27;20217;-64
2022/01/16 13:13:11;;;;;;;12.07;7.70;;;4.80;1.00;;;;;;8469396;27;20192;-63
2022/01/16 13:17:14;;;;;;;10.83;7.80;;;5.00;99.90;;;;;;8475983;27;20225;-65
2022/01/16 13:21:14;;;;;;;14.00;9.37;;;4.80;1.00;;;;;;8480907;27;20235;-66
2022/01/16 13:25:16;;;;;;;13.77;9.33;;;4.50;99.90;;;;;;8455992;28;20196;-64
2022/01/16 13:29:19;;;;;;;15.03;9.43;;;4.20;1.00;;;;;;8480711;27;20179;-64
2022/01/16 13:33:20;;;;;;;14.13;8.77;;;4.10;1.00;;;;;;8470821;27;20180;-66
2022/01/16 13:37:36;;;;;;;16.43;10.03;;;4.00;1.00;;;;;;8455674;28;20184;-66
2022/01/16 13:41:42;;;;;;;18.37;10.77;;;3.90;1.00;;;;;;8466033;27;20220;-65
2022/01/16 13:45:47;;;;;;;15.27;10.93;;;3.80;99.90;;;;;;8455096;28;20646;-64
2022/01/16 13:49:51;;;;;;;17.80;11.13;;;3.80;1.00;;;;;;8481144;27;20171;-65
2022/01/16 13:53:52;;;;;;;16.53;10.67;;;3.90;99.90;;;;;;8478171;27;20187;-65
2022/01/16 13:57:53;;;;;;;16.90;10.33;;;3.90;99.90;;;;;;8488930;27;20224;-66
2022/01/16 14:01:56;;;;;;;15.97;10.47;;;4.00;99.90;;;;;;8481321;27;20233;-63
2022/01/16 14:06:07;;;;;;;22.90;12.23;;;4.00;99.90;;;;;;8487918;27;20183;-64
2022/01/16 14:10:08;;;;;;;16.93;11.00;;;4.00;55.00;;;;;;8489190;27;20183;-65
2022/01/16 14:14:09;;;;;;;18.23;10.50;;;3.80;99.90;;;;;;8483452;27;20214;-64
2022/01/16 14:18:28;;;;;;;19.00;11.70;;;3.70;99.90;;;;;;8473825;27;20203;-66
2022/01/16 14:22:31;;;;;;;17.43;11.17;;;3.40;97.00;;;;;;8473638;27;20210;-64
2022/01/16 14:26:33;;;;;;;18.17;11.77;;;3.20;99.90;;;;;;8456290;28;20172;-65
2022/01/16 14:30:34;;;;;;;19.47;11.83;;;3.10;1.00;;;;;;8472545;27;20190;-64
2022/01/16 14:34:35;;;;;;;18.30;11.07;;;3.00;99.90;;;;;;8483185;27;20459;-63
2022/01/16 14:38:38;;;;;;;17.27;9.67;;;2.90;99.90;;;;;;8489249;27;20175;-67
2022/01/16 14:42:41;;;;;;;14.53;9.43;;;2.90;99.90;;;;;;8476836;27;20207;-64
2022/01/16 14:46:43;;;;;;;15.20;8.70;;;2.90;99.90;;;;;;8488326;27;20179;-64
2022/01/16 14:50:44;;;;;;;11.67;7.27;;;2.80;1.00;;;;;;8486640;27;20184;-65
2022/01/16 14:54:47;;;;;;;10.80;7.03;;;2.70;3.20;;;;;;8483089;27;20187;-64
2022/01/16 14:58:48;;;;;;;12.40;7.30;;;2.60;99.90;;;;;;8486659;27;20203;-64
2022/01/16 15:02:49;;;;;;;11.23;7.20;;;2.60;99.90;;;;;;8466080;27;20217;-67
2022/01/16 15:06:50;;;;;;;12.47;7.40;;;2.50;99.90;;;;;;8487379;27;20191;-64
2022/01/16 15:10:50;;;;;;;13.83;8.37;;;2.40;99.90;;;;;;8468706;27;20229;-66
2022/01/16 15:14:51;;;;;;;13.73;8.33;;;2.40;99.90;;;;;;8481688;27;20187;-66
2022/01/16 15:19:18;;;;;;;11.90;7.87;;;2.30;99.90;;;;;;8466314;27;20213;-64
2022/01/16 15:23:19;;;;;;;14.00;8.40;;;2.20;99.90;;;;;;8471187;27;20247;-65
2022/01/16 15:27:22;;;;;;;15.80;8.07;;;2.20;99.90;;;;;;8469817;27;20190;-65
2022/01/16 15:31:23;;;;;;;14.27;9.17;;;2.20;99.90;;;;;;8484954;27;20266;-64
2022/01/16 15:35:24;;;;;;;13.60;8.47;;;2.30;99.90;;;;;;8467523;27;20198;-63
2022/01/16 15:39:27;;;;;;;18.80;10.03;;;2.20;99.90;;;;;;8460704;27;20187;-65
2022/01/16 15:43:28;;;;;;;15.87;9.83;;;2.20;99.90;;;;;;8474432;27;20215;-64
2022/01/16 15:47:29;;;;;;;14.53;9.30;;;2.10;99.90;;;;;;8478080;27;20222;-64
2022/01/16 15:51:30;;;;;;;18.00;10.77;;;2.10;99.90;;;;;;8475841;27;20191;-64
2022/01/16 15:55:32;;;;;;;16.77;10.07;;;2.10;99.90;;;;;;8472092;27;20198;-66
2022/01/16 15:59:33;;;;;;;17.50;10.97;;;2.10;99.90;;;;;;8473301;28;20187;-65
2022/01/16 16:03:34;;;;;;;19.17;10.30;;;2.10;99.90;;;;;;8474336;28;20351;-64
2022/01/16 16:07:35;;;;;;;18.00;10.50;;;2.10;99.90;;;;;;8476474;27;20240;-63
2022/01/16 16:11:36;;;;;;;17.90;10.33;;;2.10;99.90;;;;;;8484957;27;20183;-64
2022/01/16 16:15:40;;;;;;;17.67;10.27;;;2.10;99.90;;;;;;8462944;27;20464;-63
2022/01/16 16:19:42;;;;;;;16.47;10.53;;;2.10;99.90;;;;;;8458123;28;20251;-67
2022/01/16 16:23:43;;;;;;;20.27;11.17;;;2.00;99.90;;;;;;8483964;27;20202;-65
2022/01/16 16:27:49;;;;;;;16.27;10.30;;;2.10;99.90;;;;;;8490644;27;20202;-64
2022/01/16 16:31:50;;;;;;;21.13;11.37;;;2.10;99.90;;;;;;8470651;27;20484;-67
2022/01/16 16:35:54;;;;;;;18.37;12.00;;;2.00;99.90;;;;;;8489338;27;20191;-64
2022/01/16 16:39:56;;;;;;;20.00;11.20;;;2.00;99.90;;;;;;8476170;27;20615;-64
2022/01/16 16:43:57;;;;;;;22.17;12.30;;;2.00;99.90;;;;;;8481224;27;20224;-66
2022/01/16 16:47:58;;;;;;;24.23;12.17;;;2.00;99.90;;;;;;8491185;27;20171;-65
2022/01/16 16:52:00;;;;;;;20.27;11.70;;;2.00;99.90;;;;;;8487086;27;20187;-64
2022/01/16 16:56:01;;;;;;;23.67;11.50;;;2.00;99.90;;;;;;8489603;27;20225;-65
2022/01/16 17:00:03;;;;;;;19.33;12.37;;;1.90;99.90;;;;;;8486684;27;20266;-66
2022/01/16 17:04:04;;;;;;;17.27;10.93;;;2.00;99.90;;;;;;8473507;27;20268;-64
2022/01/16 17:08:05;;;;;;;19.80;11.60;;;2.00;99.90;;;;;;8481624;27;20179;-65
2022/01/16 17:12:12;;;;;;;18.77;11.50;;;2.00;99.90;;;;;;8481293;27;20270;-64
2022/01/16 17:16:15;;;;;;;18.93;10.90;;;2.00;99.90;;;;;;8488598;27;20203;-65
2022/01/16 17:20:16;;;;;;;24.00;12.23;;;2.00;99.90;;;;;;8490138;27;20201;-64
2022/01/16 17:24:17;;;;;;;19.73;11.87;;;2.00;99.90;;;;;;8464275;27;20303;-65
2022/01/16 17:28:18;;;;;;;20.43;11.33;;;2.00;99.90;;;;;;8465190;27;20186;-64
2022/01/16 17:32:19;;;;;;;20.47;12.17;;;2.00;99.90;;;;;;8474783;27;20191;-66
2022/01/16 17:36:21;;;;;;;18.37;11.33;;;2.00;99.90;;;;;;8456986;28;20203;-64
2022/01/16 17:40:22;;;;;;;18.43;11.10;;;2.10;99.90;;;;;;8459690;27;20183;-64
2022/01/16 17:44:24;;;;;;;20.93;11.47;;;2.00;99.90;;;;;;8479875;27;20297;-66
2022/01/16 17:48:25;;;;;;;16.83;11.43;;;2.00;99.90;;;;;;8471636;27;20184;-65
2022/01/16 17:52:26;;;;;;;23.97;12.07;;;1.90;99.90;;;;;;8487529;27;20187;-66
2022/01/16 17:56:27;;;;;;;20.97;11.43;;;2.00;99.90;;;;;;8490457;27;20197;-66
2022/01/16 18:00:28;;;;;;;17.10;11.73;;;1.90;99.90;;;;;;8480661;27;20191;-64
2022/01/16 18:04:28;;;;;;;19.73;12.23;;;1.90;99.90;;;;;;8490456;27;20207;-64
2022/01/16 18:08:29;;;;;;;20.87;12.67;;;1.90;99.90;;;;;;8483977;27;20194;-65
2022/01/16 18:12:30;;;;;;;18.23;11.33;;;1.90;99.90;;;;;;8483188;27;20175;-65
2022/01/16 18:16:32;;;;;;;18.40;11.63;;;1.90;99.90;;;;;;8477810;27;20207;-66
2022/01/16 18:20:34;;;;;;;18.03;12.03;;;1.80;99.90;;;;;;8474980;27;20269;-65
2022/01/16 18:24:34;;;;;;;18.43;11.20;;;1.80;99.90;;;;;;8460466;27;20226;-64
2022/01/16 18:28:36;;;;;;;21.27;11.93;;;1.90;99.90;;;;;;8465915;27;20172;-67
2022/01/16 18:32:37;;;;;;;17.97;11.33;;;1.90;99.90;;;;;;8473365;27;20186;-67
2022/01/16 18:36:41;;;;;;;17.20;11.07;;;1.90;99.90;;;;;;8453749;28;20183;-67
2022/01/16 18:40:42;;;;;;;19.77;11.33;;;1.90;99.90;;;;;;8459151;27;20187;-63
2022/01/16 18:44:43;;;;;;;16.20;10.47;;;1.90;99.90;;;;;;8466333;27;20175;-64
2022/01/16 18:48:44;;;;;;;16.30;10.20;;;1.90;99.90;;;;;;8474102;27;20251;-66
2022/01/16 18:52:48;;;;;;;16.03;10.10;;;2.00;99.90;;;;;;8470059;27;20195;-64
2022/01/16 18:56:48;;;;;;;14.80;10.40;;;2.00;99.90;;;;;;8486962;27;20222;-64
2022/01/16 19:00:50;;;;;;;18.07;10.47;;;2.00;99.90;;;;;;8479363;27;20175;-66
2022/01/16 19:04:51;;;;;;;21.90;10.60;;;2.00;99.90;;;;;;8474976;27;20187;-63
2022/01/16 19:08:53;;;;;;;15.27;9.87;;;2.00;99.90;;;;;;8471185;27;20185;-65
2022/01/16 19:12:55;;;;;;;15.63;10.10;;;2.00;99.90;;;;;;8479856;27;20187;-63
2022/01/16 19:16:56;;;;;;;15.40;10.37;;;2.00;99.90;;;;;;8483373;27;20195;-64
2022/01/16 19:20:57;;;;;;;15.03;8.77;;;2.00;99.90;;;;;;8476319;27;20186;-64
2022/01/16 19:25:00;;;;;;;14.97;9.37;;;2.10;99.90;;;;;;8436899;28;20180;-64
2022/01/16 19:29:01;;;;;;;11.97;9.13;;;2.10;99.90;;;;;;8466649;27;20182;-64
2022/01/16 19:33:03;;;;;;;13.70;8.63;;;2.10;99.90;;;;;;8484681;27;20270;-65
2022/01/16 19:37:04;;;;;;;13.23;8.53;;;2.20;99.90;;;;;;8486450;27;20180;-65
2022/01/16 19:41:05;;;;;;;15.63;8.67;;;2.20;99.90;;;;;;8462463;27;20218;-65
2022/01/16 19:45:06;;;;;;;12.13;8.20;;;2.20;99.90;;;;;;8461618;27;20175;-65
2022/01/16 19:49:10;;;;;;;12.13;8.00;;;2.20;99.90;;;;;;8470533;27;20178;-65
2022/01/16 19:53:11;;;;;;;12.67;8.53;;;2.20;99.90;;;;;;8481522;27;20191;-64
2022/01/16 19:57:13;;;;;;;14.27;9.20;;;2.20;99.90;;;;;;8484278;27;20259;-65
2022/01/16 20:01:14;;;;;;;12.60;8.50;;;2.20;99.90;;;;;;8469511;27;20199;-65
2022/01/16 20:05:16;;;;;;;14.00;10.10;;;2.20;99.90;;;;;;8479771;27;20267;-65
2022/01/16 20:09:17;;;;;;;13.17;9.03;;;2.20;99.90;;;;;;8453516;28;20424;-65
2022/01/16 20:13:19;;;;;;;14.30;9.30;;;2.20;99.90;;;;;;8463224;27;20196;-64
2022/01/16 20:17:22;;;;;;;13.00;9.03;;;2.20;99.90;;;;;;8459978;28;20657;-66
2022/01/16 20:21:23;;;;;;;14.67;9.90;;;2.30;99.90;;;;;;8484149;27;20211;-65
2022/01/16 20:25:26;;;;;;;16.50;9.70;;;2.30;99.90;;;;;;8450708;28;20180;-64
2022/01/16 20:29:27;;;;;;;13.27;9.97;;;2.30;99.90;;;;;;8472732;28;20175;-66
2022/01/16 20:33:33;;;;;;;17.17;10.03;;;2.40;99.90;;;;;;8476917;27;20189;-65
2022/01/16 20:37:34;;;;;;;16.53;10.60;;;2.40;99.90;;;;;;8484625;27;20191;-65
2022/01/16 20:41:35;;;;;;;18.60;11.07;;;2.50;99.90;;;;;;8472196;27;20312;-64
2022/01/16 20:45:36;;;;;;;18.93;10.67;;;2.50;99.90;;;;;;8458129;28;20232;-67
2022/01/16 20:49:37;;;;;;;18.07;11.33;;;2.50;99.90;;;;;;8455467;28;20188;-64
2022/01/16 20:53:38;;;;;;;18.67;11.53;;;2.60;99.90;;;;;;8480116;27;20191;-66
2022/01/16 20:57:39;;;;;;;16.93;12.30;;;2.60;99.90;;;;;;8490417;27;20232;-65
2022/01/16 21:01:41;;;;;;;20.43;12.70;;;2.60;99.90;;;;;;8486652;27;20229;-66
2022/01/16 21:05:42;;;;;;;22.83;12.63;;;2.60;99.90;;;;;;8477275;27;20179;-65
2022/01/16 21:09:44;;;;;;;20.73;13.97;;;2.70;99.90;;;;;;8472136;27;20296;-65
2022/01/16 21:13:48;;;;;;;26.77;14.50;;;2.70;99.90;;;;;;8482418;27;20188;-67
2022/01/16 21:17:49;;;;;;;23.77;13.87;;;2.70;99.90;;;;;;8491192;27;20199;-66
2022/01/16 21:21:50;;;;;;;24.37;14.20;;;2.80;99.90;;;;;;8481191;27;20233;-68